sensor_id;sensor_type;location;lat;lon;timestamp;temperature;humidity
72288;SHT31;60221;45.696;16.076;2022-10-31T00:01:32;14.64;71.85
72288;SHT31;60221;45.696;16.076;2022-10-31T00:03:55;14.55;70.82
72288;SHT31;60221;45.696;16.076;2022-10-31T00:06:22;14.33;70.39
72288;SHT31;60221;45.696;16.076;2022-10-31T00:08:58;14.24;70.93
72288;SHT31;60221;45.696;16.076;2022-10-31T00:11:25;14.19;70.98
72288;SHT31;60221;45.696;16.076;2022-10-31T00:13:52;14.03;71.20
72288;SHT31;60221;45.696;16.076;2022-10-31T00:16:24;14.07;72.45
72288;SHT31;60221;45.696;16.076;2022-10-31T00:18:56;14.20;72.98
72288;SHT31;60221;45.696;16.076;2022-10-31T00:21:23;14.26;72.24
72288;SHT31;60221;45.696;16.076;2022-10-31T00:23:49;14.15;71.69
72288;SHT31;60221;45.696;16.076;2022-10-31T00:26:15;14.03;71.77
72288;SHT31;60221;45.696;16.076;2022-10-31T00:28:42;13.88;71.89
72288;SHT31;60221;45.696;16.076;2022-10-31T00:31:12;13.83;71.96
72288;SHT31;60221;45.696;16.076;2022-10-31T00:33:40;13.96;72.88
72288;SHT31;60221;45.696;16.076;2022-10-31T00:36:11;14.24;73.70
72288;SHT31;60221;45.696;16.076;2022-10-31T00:38:39;14.55;72.64
72288;SHT31;60221;45.696;16.076;2022-10-31T00:41:06;14.54;71.54
72288;SHT31;60221;45.696;16.076;2022-10-31T00:43:32;14.45;70.97
72288;SHT31;60221;45.696;16.076;2022-10-31T00:45:58;14.35;70.61
72288;SHT31;60221;45.696;16.076;2022-10-31T00:48:24;14.27;70.98
72288;SHT31;60221;45.696;16.076;2022-10-31T00:50:52;14.27;70.80
72288;SHT31;60221;45.696;16.076;2022-10-31T00:53:18;14.15;70.75
72288;SHT31;60221;45.696;16.076;2022-10-31T00:55:45;14.02;70.75
72288;SHT31;60221;45.696;16.076;2022-10-31T00:58:12;13.90;70.94
72288;SHT31;60221;45.696;16.076;2022-10-31T01:00:39;13.85;71.20
72288;SHT31;60221;45.696;16.076;2022-10-31T01:03:05;13.78;71.35
72288;SHT31;60221;45.696;16.076;2022-10-31T01:05:32;13.69;71.45
72288;SHT31;60221;45.696;16.076;2022-10-31T01:07:58;13.65;71.95
72288;SHT31;60221;45.696;16.076;2022-10-31T01:10:26;13.58;72.38
72288;SHT31;60221;45.696;16.076;2022-10-31T01:12:52;13.51;72.51
72288;SHT31;60221;45.696;16.076;2022-10-31T01:15:22;13.44;72.61
72288;SHT31;60221;45.696;16.076;2022-10-31T01:17:50;13.57;74.34
72288;SHT31;60221;45.696;16.076;2022-10-31T01:20:17;14.78;77.27
72288;SHT31;60221;45.696;16.076;2022-10-31T01:22:44;15.13;73.03
72288;SHT31;60221;45.696;16.076;2022-10-31T01:25:11;15.02;70.77
72288;SHT31;60221;45.696;16.076;2022-10-31T01:27:37;14.82;69.86
72288;SHT31;60221;45.696;16.076;2022-10-31T01:30:07;14.67;69.73
72288;SHT31;60221;45.696;16.076;2022-10-31T01:32:33;14.48;69.69
72288;SHT31;60221;45.696;16.076;2022-10-31T01:34:59;14.26;69.51
72288;SHT31;60221;45.696;16.076;2022-10-31T01:37:25;14.12;69.77
72288;SHT31;60221;45.696;16.076;2022-10-31T01:39:51;14.07;70.27
72288;SHT31;60221;45.696;16.076;2022-10-31T01:42:21;14.00;70.51
72288;SHT31;60221;45.696;16.076;2022-10-31T01:45:00;13.93;70.81
72288;SHT31;60221;45.696;16.076;2022-10-31T01:47:45;13.78;70.76
72288;SHT31;60221;45.696;16.076;2022-10-31T01:50:26;13.62;71.27
72288;SHT31;60221;45.696;16.076;2022-10-31T01:52:52;13.51;71.93
72288;SHT31;60221;45.696;16.076;2022-10-31T01:55:26;13.45;72.23
72288;SHT31;60221;45.696;16.076;2022-10-31T01:57:58;13.41;72.56
72288;SHT31;60221;45.696;16.076;2022-10-31T02:00:25;13.38;73.00
72288;SHT31;60221;45.696;16.076;2022-10-31T02:02:51;13.31;73.18
72288;SHT31;60221;45.696;16.076;2022-10-31T02:05:23;13.25;73.41
72288;SHT31;60221;45.696;16.076;2022-10-31T02:08:08;13.23;73.50
72288;SHT31;60221;45.696;16.076;2022-10-31T02:10:37;13.17;73.86
72288;SHT31;60221;45.696;16.076;2022-10-31T02:13:07;13.14;74.14
72288;SHT31;60221;45.696;16.076;2022-10-31T02:15:38;13.08;74.22
72288;SHT31;60221;45.696;16.076;2022-10-31T02:18:07;13.38;75.82
72288;SHT31;60221;45.696;16.076;2022-10-31T02:36:10;13.08;73.80
72288;SHT31;60221;45.696;16.076;2022-10-31T02:47:06;13.08;73.97
72288;SHT31;60221;45.696;16.076;2022-10-31T02:49:50;12.96;73.82
72288;SHT31;60221;45.696;16.076;2022-10-31T02:52:23;13.00;74.50
72288;SHT31;60221;45.696;16.076;2022-10-31T02:54:51;13.23;75.23
72288;SHT31;60221;45.696;16.076;2022-10-31T02:57:35;13.27;74.81
72288;SHT31;60221;45.696;16.076;2022-10-31T03:00:06;13.27;74.62
72288;SHT31;60221;45.696;16.076;2022-10-31T03:10:49;13.20;73.60
72288;SHT31;60221;45.696;16.076;2022-10-31T03:16:19;13.00;74.11
72288;SHT31;60221;45.696;16.076;2022-10-31T03:19:11;13.42;75.70
72288;SHT31;60221;45.696;16.076;2022-10-31T03:21:50;14.45;77.88
72288;SHT31;60221;45.696;16.076;2022-10-31T03:24:16;14.76;74.06
72288;SHT31;60221;45.696;16.076;2022-10-31T03:26:51;14.78;71.51
72288;SHT31;60221;45.696;16.076;2022-10-31T03:29:22;14.83;70.78
72288;SHT31;60221;45.696;16.076;2022-10-31T03:32:29;14.81;70.82
72288;SHT31;60221;45.696;16.076;2022-10-31T03:34:59;14.85;70.15
72288;SHT31;60221;45.696;16.076;2022-10-31T03:37:29;14.83;69.60
72288;SHT31;60221;45.696;16.076;2022-10-31T03:40:00;14.82;69.53
72288;SHT31;60221;45.696;16.076;2022-10-31T03:42:32;14.91;69.90
72288;SHT31;60221;45.696;16.076;2022-10-31T03:45:13;15.02;69.14
72288;SHT31;60221;45.696;16.076;2022-10-31T03:47:42;15.03;68.28
72288;SHT31;60221;45.696;16.076;2022-10-31T03:50:12;15.00;68.10
72288;SHT31;60221;45.696;16.076;2022-10-31T03:52:59;14.98;68.12
72288;SHT31;60221;45.696;16.076;2022-10-31T03:55:34;14.93;68.05
72288;SHT31;60221;45.696;16.076;2022-10-31T03:58:08;14.89;67.71
72288;SHT31;60221;45.696;16.076;2022-10-31T04:00:37;14.93;68.18
72288;SHT31;60221;45.696;16.076;2022-10-31T04:03:17;15.02;67.54
72288;SHT31;60221;45.696;16.076;2022-10-31T04:05:48;15.06;67.50
72288;SHT31;60221;45.696;16.076;2022-10-31T04:08:20;15.03;66.86
72288;SHT31;60221;45.696;16.076;2022-10-31T04:10:49;14.98;66.76
72288;SHT31;60221;45.696;16.076;2022-10-31T04:13:29;14.93;66.90
72288;SHT31;60221;45.696;16.076;2022-10-31T04:15:58;14.88;67.00
72288;SHT31;60221;45.696;16.076;2022-10-31T04:18:26;14.83;66.98
72288;SHT31;60221;45.696;16.076;2022-10-31T04:21:03;14.83;67.12
72288;SHT31;60221;45.696;16.076;2022-10-31T04:23:31;14.78;67.29
72288;SHT31;60221;45.696;16.076;2022-10-31T04:25:58;14.75;67.39
72288;SHT31;60221;45.696;16.076;2022-10-31T04:28:24;14.68;67.40
72288;SHT31;60221;45.696;16.076;2022-10-31T04:30:52;14.62;67.49
72288;SHT31;60221;45.696;16.076;2022-10-31T04:33:19;14.61;67.50
72288;SHT31;60221;45.696;16.076;2022-10-31T04:35:47;14.57;67.42
72288;SHT31;60221;45.696;16.076;2022-10-31T04:38:13;14.55;67.58
72288;SHT31;60221;45.696;16.076;2022-10-31T04:40:40;14.52;67.65
72288;SHT31;60221;45.696;16.076;2022-10-31T04:43:11;14.52;67.90
72288;SHT31;60221;45.696;16.076;2022-10-31T04:45:38;14.55;67.93
72288;SHT31;60221;45.696;16.076;2022-10-31T04:48:05;14.52;67.95
72288;SHT31;60221;45.696;16.076;2022-10-31T04:50:32;14.55;68.08
72288;SHT31;60221;45.696;16.076;2022-10-31T04:52:59;14.60;68.01
72288;SHT31;60221;45.696;16.076;2022-10-31T04:55:27;14.58;68.07
72288;SHT31;60221;45.696;16.076;2022-10-31T04:58:07;14.55;68.14
72288;SHT31;60221;45.696;16.076;2022-10-31T05:00:34;14.54;68.14
72288;SHT31;60221;45.696;16.076;2022-10-31T05:03:00;14.52;68.20
72288;SHT31;60221;45.696;16.076;2022-10-31T05:05:30;14.49;68.21
72288;SHT31;60221;45.696;16.076;2022-10-31T05:07:57;14.48;68.19
72288;SHT31;60221;45.696;16.076;2022-10-31T05:10:27;14.52;68.21
72288;SHT31;60221;45.696;16.076;2022-10-31T05:12:59;14.48;68.15
72288;SHT31;60221;45.696;16.076;2022-10-31T05:15:44;14.48;68.07
72288;SHT31;60221;45.696;16.076;2022-10-31T05:18:29;14.54;67.95
72288;SHT31;60221;45.696;16.076;2022-10-31T05:21:13;14.52;67.97
72288;SHT31;60221;45.696;16.076;2022-10-31T05:23:53;14.51;67.91
72288;SHT31;60221;45.696;16.076;2022-10-31T05:26:21;14.43;67.82
72288;SHT31;60221;45.696;16.076;2022-10-31T05:28:47;14.41;67.84
72288;SHT31;60221;45.696;16.076;2022-10-31T05:31:13;14.40;67.93
72288;SHT31;60221;45.696;16.076;2022-10-31T05:33:40;14.41;67.93
72288;SHT31;60221;45.696;16.076;2022-10-31T05:36:11;14.38;67.85
72288;SHT31;60221;45.696;16.076;2022-10-31T05:38:39;14.40;68.00
72288;SHT31;60221;45.696;16.076;2022-10-31T05:41:07;14.45;68.00
72288;SHT31;60221;45.696;16.076;2022-10-31T05:43:33;14.44;67.86
72288;SHT31;60221;45.696;16.076;2022-10-31T05:46:00;14.44;67.81
72288;SHT31;60221;45.696;16.076;2022-10-31T05:48:31;14.45;67.78
72288;SHT31;60221;45.696;16.076;2022-10-31T05:51:15;14.45;67.94
72288;SHT31;60221;45.696;16.076;2022-10-31T05:53:42;14.40;67.89
72288;SHT31;60221;45.696;16.076;2022-10-31T05:56:08;14.35;67.73
72288;SHT31;60221;45.696;16.076;2022-10-31T05:58:35;14.34;67.86
72288;SHT31;60221;45.696;16.076;2022-10-31T06:01:05;14.40;68.12
72288;SHT31;60221;45.696;16.076;2022-10-31T06:03:32;14.37;68.03
72288;SHT31;60221;45.696;16.076;2022-10-31T06:06:00;14.38;68.04
72288;SHT31;60221;45.696;16.076;2022-10-31T06:08:30;14.41;68.18
72288;SHT31;60221;45.696;16.076;2022-10-31T06:10:58;14.43;68.20
72288;SHT31;60221;45.696;16.076;2022-10-31T06:13:26;14.45;68.09
72288;SHT31;60221;45.696;16.076;2022-10-31T06:15:57;14.45;68.03
72288;SHT31;60221;45.696;16.076;2022-10-31T06:18:25;14.48;68.20
72288;SHT31;60221;45.696;16.076;2022-10-31T06:20:51;14.49;68.09
72288;SHT31;60221;45.696;16.076;2022-10-31T06:23:17;14.48;68.20
72288;SHT31;60221;45.696;16.076;2022-10-31T06:25:50;14.52;68.34
72288;SHT31;60221;45.696;16.076;2022-10-31T06:28:16;14.57;68.45
72288;SHT31;60221;45.696;16.076;2022-10-31T06:30:48;14.64;68.34
72288;SHT31;60221;45.696;16.076;2022-10-31T06:33:14;14.67;68.05
72288;SHT31;60221;45.696;16.076;2022-10-31T06:35:46;14.74;67.92
72288;SHT31;60221;45.696;16.076;2022-10-31T06:38:14;14.74;68.00
72288;SHT31;60221;45.696;16.076;2022-10-31T06:40:41;14.78;67.90
72288;SHT31;60221;45.696;16.076;2022-10-31T06:43:09;14.78;67.94
72288;SHT31;60221;45.696;16.076;2022-10-31T06:45:37;14.79;68.12
72288;SHT31;60221;45.696;16.076;2022-10-31T06:48:24;14.82;67.99
72288;SHT31;60221;45.696;16.076;2022-10-31T06:51:08;14.88;67.96
72288;SHT31;60221;45.696;16.076;2022-10-31T06:53:34;14.96;67.82
72288;SHT31;60221;45.696;16.076;2022-10-31T06:56:02;15.02;67.91
72288;SHT31;60221;45.696;16.076;2022-10-31T06:58:30;15.09;67.69
72288;SHT31;60221;45.696;16.076;2022-10-31T07:01:01;15.10;67.30
72288;SHT31;60221;45.696;16.076;2022-10-31T07:03:27;15.18;67.07
72288;SHT31;60221;45.696;16.076;2022-10-31T07:05:55;15.18;66.98
72288;SHT31;60221;45.696;16.076;2022-10-31T07:08:23;15.23;67.29
72288;SHT31;60221;45.696;16.076;2022-10-31T07:10:56;15.27;67.19
72288;SHT31;60221;45.696;16.076;2022-10-31T07:13:23;15.27;66.94
72288;SHT31;60221;45.696;16.076;2022-10-31T07:16:01;15.36;66.95
72288;SHT31;60221;45.696;16.076;2022-10-31T07:18:29;15.43;66.81
72288;SHT31;60221;45.696;16.076;2022-10-31T07:20:56;15.48;66.81
72288;SHT31;60221;45.696;16.076;2022-10-31T07:23:22;15.51;66.97
72288;SHT31;60221;45.696;16.076;2022-10-31T07:25:56;15.57;66.70
72288;SHT31;60221;45.696;16.076;2022-10-31T07:28:26;15.64;66.78
72288;SHT31;60221;45.696;16.076;2022-10-31T07:30:58;15.71;66.46
72288;SHT31;60221;45.696;16.076;2022-10-31T07:33:24;15.82;66.23
72288;SHT31;60221;45.696;16.076;2022-10-31T07:36:10;15.85;66.14
72288;SHT31;60221;45.696;16.076;2022-10-31T07:38:39;15.91;66.24
72288;SHT31;60221;45.696;16.076;2022-10-31T07:41:05;15.95;66.04
72288;SHT31;60221;45.696;16.076;2022-10-31T07:43:32;16.06;65.78
72288;SHT31;60221;45.696;16.076;2022-10-31T07:46:00;16.09;65.90
72288;SHT31;60221;45.696;16.076;2022-10-31T07:48:37;16.12;65.01
72288;SHT31;60221;45.696;16.076;2022-10-31T07:51:21;16.12;65.08
72288;SHT31;60221;45.696;16.076;2022-10-31T07:54:08;16.15;65.34
72288;SHT31;60221;45.696;16.076;2022-10-31T07:56:34;16.20;65.24
72288;SHT31;60221;45.696;16.076;2022-10-31T07:59:00;16.22;65.29
72288;SHT31;60221;45.696;16.076;2022-10-31T08:01:26;16.24;65.50
72288;SHT31;60221;45.696;16.076;2022-10-31T08:03:54;16.26;65.14
72288;SHT31;60221;45.696;16.076;2022-10-31T08:06:39;16.30;65.42
72288;SHT31;60221;45.696;16.076;2022-10-31T08:09:13;16.34;65.13
72288;SHT31;60221;45.696;16.076;2022-10-31T08:11:39;16.43;65.39
72288;SHT31;60221;45.696;16.076;2022-10-31T08:14:06;16.46;65.45
72288;SHT31;60221;45.696;16.076;2022-10-31T08:16:33;16.46;65.74
72288;SHT31;60221;45.696;16.076;2022-10-31T08:19:01;16.43;65.34
72288;SHT31;60221;45.696;16.076;2022-10-31T08:21:28;16.46;64.60
72288;SHT31;60221;45.696;16.076;2022-10-31T08:23:54;16.44;65.18
72288;SHT31;60221;45.696;16.076;2022-10-31T08:26:21;16.44;65.78
72288;SHT31;60221;45.696;16.076;2022-10-31T08:28:48;16.47;65.19
72288;SHT31;60221;45.696;16.076;2022-10-31T08:31:16;16.50;65.26
72288;SHT31;60221;45.696;16.076;2022-10-31T08:33:44;16.53;65.58
72288;SHT31;60221;45.696;16.076;2022-10-31T08:36:18;16.57;64.61
72288;SHT31;60221;45.696;16.076;2022-10-31T08:38:53;16.64;65.06
72288;SHT31;60221;45.696;16.076;2022-10-31T08:41:19;16.71;64.81
72288;SHT31;60221;45.696;16.076;2022-10-31T08:43:46;16.77;64.81
72288;SHT31;60221;45.696;16.076;2022-10-31T08:46:14;16.85;65.06
72288;SHT31;60221;45.696;16.076;2022-10-31T08:48:42;16.92;64.19
72288;SHT31;60221;45.696;16.076;2022-10-31T08:51:10;17.02;64.25
72288;SHT31;60221;45.696;16.076;2022-10-31T08:53:36;17.08;64.12
72288;SHT31;60221;45.696;16.076;2022-10-31T08:56:16;17.09;64.65
72288;SHT31;60221;45.696;16.076;2022-10-31T08:58:43;17.15;63.57
72288;SHT31;60221;45.696;16.076;2022-10-31T09:01:09;17.22;64.40
72288;SHT31;60221;45.696;16.076;2022-10-31T09:03:35;17.23;63.54
72288;SHT31;60221;45.696;16.076;2022-10-31T09:06:03;17.30;63.64
72288;SHT31;60221;45.696;16.076;2022-10-31T09:08:32;17.37;64.02
72288;SHT31;60221;45.696;16.076;2022-10-31T09:11:02;17.37;63.40
72288;SHT31;60221;45.696;16.076;2022-10-31T09:13:48;17.36;63.42
72288;SHT31;60221;45.696;16.076;2022-10-31T09:16:16;17.42;63.80
72288;SHT31;60221;45.696;16.076;2022-10-31T09:18:43;17.47;64.18
72288;SHT31;60221;45.696;16.076;2022-10-31T09:21:09;17.52;63.18
72288;SHT31;60221;45.696;16.076;2022-10-31T09:23:35;17.57;63.90
72288;SHT31;60221;45.696;16.076;2022-10-31T09:26:03;17.60;63.69
72288;SHT31;60221;45.696;16.076;2022-10-31T09:28:37;17.62;63.66
72288;SHT31;60221;45.696;16.076;2022-10-31T09:31:07;17.69;63.68
72288;SHT31;60221;45.696;16.076;2022-10-31T09:33:53;17.76;62.82
72288;SHT31;60221;45.696;16.076;2022-10-31T09:36:21;17.81;62.58
72288;SHT31;60221;45.696;16.076;2022-10-31T09:38:47;17.84;62.89
72288;SHT31;60221;45.696;16.076;2022-10-31T09:41:44;17.91;62.40
72288;SHT31;60221;45.696;16.076;2022-10-31T09:52:39;18.25;62.40
72288;SHT31;60221;45.696;16.076;2022-10-31T09:55:17;18.27;62.29
72288;SHT31;60221;45.696;16.076;2022-10-31T09:57:45;18.29;62.83
72288;SHT31;60221;45.696;16.076;2022-10-31T10:00:20;18.28;62.69
72288;SHT31;60221;45.696;16.076;2022-10-31T10:03:02;18.32;62.93
72288;SHT31;60221;45.696;16.076;2022-10-31T10:05:32;18.43;63.06
72288;SHT31;60221;45.696;16.076;2022-10-31T10:08:20;18.49;63.15
72288;SHT31;60221;45.696;16.076;2022-10-31T10:25:42;18.73;63.14
72288;SHT31;60221;45.696;16.076;2022-10-31T10:28:23;19.17;63.45
72288;SHT31;60221;45.696;16.076;2022-10-31T10:31:18;19.48;61.67
72288;SHT31;60221;45.696;16.076;2022-10-31T10:34:49;19.69;61.27
72288;SHT31;60221;45.696;16.076;2022-10-31T10:36:37;19.66;60.51
72288;SHT31;60221;45.696;16.076;2022-10-31T10:39:12;19.65;60.13
72288;SHT31;60221;45.696;16.076;2022-10-31T10:41:37;19.58;60.09
72288;SHT31;60221;45.696;16.076;2022-10-31T10:44:08;19.52;60.13
72288;SHT31;60221;45.696;16.076;2022-10-31T10:46:52;19.42;61.37
72288;SHT31;60221;45.696;16.076;2022-10-31T10:49:51;19.31;61.18
72288;SHT31;60221;45.696;16.076;2022-10-31T10:52:36;19.29;61.35
72288;SHT31;60221;45.696;16.076;2022-10-31T10:58:14;19.36;61.89
72288;SHT31;60221;45.696;16.076;2022-10-31T11:00:47;19.32;61.92
72288;SHT31;60221;45.696;16.076;2022-10-31T11:03:17;19.32;61.75
72288;SHT31;60221;45.696;16.076;2022-10-31T11:05:57;19.36;61.80
72288;SHT31;60221;45.696;16.076;2022-10-31T11:08:35;19.42;61.76
72288;SHT31;60221;45.696;16.076;2022-10-31T11:13:48;19.53;62.07
72288;SHT31;60221;45.696;16.076;2022-10-31T11:16:29;19.58;61.79
72288;SHT31;60221;45.696;16.076;2022-10-31T11:19:18;19.60;61.88
72288;SHT31;60221;45.696;16.076;2022-10-31T11:21:47;19.63;61.93
72288;SHT31;60221;45.696;16.076;2022-10-31T11:24:20;19.63;61.48
72288;SHT31;60221;45.696;16.076;2022-10-31T11:26:50;19.55;61.46
72288;SHT31;60221;45.696;16.076;2022-10-31T11:29:23;19.45;61.64
72288;SHT31;60221;45.696;16.076;2022-10-31T11:31:56;19.44;61.77
72288;SHT31;60221;45.696;16.076;2022-10-31T11:34:42;19.44;62.29
72288;SHT31;60221;45.696;16.076;2022-10-31T11:37:25;19.44;62.22
72288;SHT31;60221;45.696;16.076;2022-10-31T11:39:58;19.41;62.24
72288;SHT31;60221;45.696;16.076;2022-10-31T11:42:35;19.44;61.95
72288;SHT31;60221;45.696;16.076;2022-10-31T11:45:16;19.41;62.18
72288;SHT31;60221;45.696;16.076;2022-10-31T11:47:52;19.38;62.26
72288;SHT31;60221;45.696;16.076;2022-10-31T11:50:30;19.33;62.33
72288;SHT31;60221;45.696;16.076;2022-10-31T11:52:55;19.28;62.39
72288;SHT31;60221;45.696;16.076;2022-10-31T11:55:37;19.23;62.76
72288;SHT31;60221;45.696;16.076;2022-10-31T11:58:04;19.22;62.66
72288;SHT31;60221;45.696;16.076;2022-10-31T12:00:37;19.26;62.67
72288;SHT31;60221;45.696;16.076;2022-10-31T12:06:17;19.33;62.95
72288;SHT31;60221;45.696;16.076;2022-10-31T12:08:45;19.28;62.85
72288;SHT31;60221;45.696;16.076;2022-10-31T12:14:05;19.25;63.05
72288;SHT31;60221;45.696;16.076;2022-10-31T12:16:36;19.25;62.84
72288;SHT31;60221;45.696;16.076;2022-10-31T12:22:06;19.32;62.73
72288;SHT31;60221;45.696;16.076;2022-10-31T12:25:03;19.36;62.93
72288;SHT31;60221;45.696;16.076;2022-10-31T12:27:34;19.33;62.96
72288;SHT31;60221;45.696;16.076;2022-10-31T12:30:19;19.38;62.98
72288;SHT31;60221;45.696;16.076;2022-10-31T12:33:12;19.31;63.04
72288;SHT31;60221;45.696;16.076;2022-10-31T12:35:50;19.28;63.26
72288;SHT31;60221;45.696;16.076;2022-10-31T12:38:42;19.26;63.42
72288;SHT31;60221;45.696;16.076;2022-10-31T12:53:50;19.29;63.57
72288;SHT31;60221;45.696;16.076;2022-10-31T12:59:03;19.28;63.90
72288;SHT31;60221;45.696;16.076;2022-10-31T13:01:53;19.21;64.05
72288;SHT31;60221;45.696;16.076;2022-10-31T13:04:43;19.22;64.01
72288;SHT31;60221;45.696;16.076;2022-10-31T13:07:22;19.22;64.06
72288;SHT31;60221;45.696;16.076;2022-10-31T13:12:36;19.26;63.90
72288;SHT31;60221;45.696;16.076;2022-10-31T13:15:19;19.26;63.92
72288;SHT31;60221;45.696;16.076;2022-10-31T13:17:54;19.26;64.04
72288;SHT31;60221;45.696;16.076;2022-10-31T13:20:45;19.25;64.03
72288;SHT31;60221;45.696;16.076;2022-10-31T13:23:24;19.21;64.07
72288;SHT31;60221;45.696;16.076;2022-10-31T13:25:55;19.07;64.26
72288;SHT31;60221;45.696;16.076;2022-10-31T13:31:16;19.01;64.80
72288;SHT31;60221;45.696;16.076;2022-10-31T13:33:57;18.94;64.93
72288;SHT31;60221;45.696;16.076;2022-10-31T13:45:17;18.87;65.33
72288;SHT31;60221;45.696;16.076;2022-10-31T13:48:38;18.83;65.39
72288;SHT31;60221;45.696;16.076;2022-10-31T13:50:40;18.80;65.52
72288;SHT31;60221;45.696;16.076;2022-10-31T13:53:22;18.77;65.60
72288;SHT31;60221;45.696;16.076;2022-10-31T13:58:38;18.76;66.03
72288;SHT31;60221;45.696;16.076;2022-10-31T14:01:22;18.71;66.33
72288;SHT31;60221;45.696;16.076;2022-10-31T14:09:32;18.63;66.67
72288;SHT31;60221;45.696;16.076;2022-10-31T14:12:00;18.60;66.53
72288;SHT31;60221;45.696;16.076;2022-10-31T14:14:32;18.55;66.76
72288;SHT31;60221;45.696;16.076;2022-10-31T14:16:59;18.52;67.00
72288;SHT31;60221;45.696;16.076;2022-10-31T14:19:26;18.57;67.50
72288;SHT31;60221;45.696;16.076;2022-10-31T14:21:53;18.55;67.08
72288;SHT31;60221;45.696;16.076;2022-10-31T14:24:32;18.55;67.30
72288;SHT31;60221;45.696;16.076;2022-10-31T14:27:45;18.49;67.34
72288;SHT31;60221;45.696;16.076;2022-10-31T14:29:34;18.46;67.56
72288;SHT31;60221;45.696;16.076;2022-10-31T14:32:17;18.42;67.26
72288;SHT31;60221;45.696;16.076;2022-10-31T14:37:51;18.27;67.92
72288;SHT31;60221;45.696;16.076;2022-10-31T14:40:46;18.19;68.21
72288;SHT31;60221;45.696;16.076;2022-10-31T14:46:57;18.09;68.24
72288;SHT31;60221;45.696;16.076;2022-10-31T14:52:13;18.02;68.34
72288;SHT31;60221;45.696;16.076;2022-10-31T14:54:51;18.00;68.98
72288;SHT31;60221;45.696;16.076;2022-10-31T14:57:26;17.95;69.18
72288;SHT31;60221;45.696;16.076;2022-10-31T15:00:00;17.92;69.57
72288;SHT31;60221;45.696;16.076;2022-10-31T15:02:46;17.87;69.43
72288;SHT31;60221;45.696;16.076;2022-10-31T15:05:10;17.81;69.46
72288;SHT31;60221;45.696;16.076;2022-10-31T15:07:56;17.81;70.00
72288;SHT31;60221;45.696;16.076;2022-10-31T15:10:30;17.76;70.02
72288;SHT31;60221;45.696;16.076;2022-10-31T15:13:20;17.76;70.35
72288;SHT31;60221;45.696;16.076;2022-10-31T15:15:53;17.77;70.65
72288;SHT31;60221;45.696;16.076;2022-10-31T15:18:26;17.73;70.64
72288;SHT31;60221;45.696;16.076;2022-10-31T15:20:55;17.74;70.84
72288;SHT31;60221;45.696;16.076;2022-10-31T15:23:29;17.74;70.80
72288;SHT31;60221;45.696;16.076;2022-10-31T15:26:03;17.74;70.80
72288;SHT31;60221;45.696;16.076;2022-10-31T15:28:31;17.70;70.93
72288;SHT31;60221;45.696;16.076;2022-10-31T15:31:01;17.71;71.01
72288;SHT31;60221;45.696;16.076;2022-10-31T15:33:39;17.71;71.07
72288;SHT31;60221;45.696;16.076;2022-10-31T15:36:03;17.70;71.14
72288;SHT31;60221;45.696;16.076;2022-10-31T15:38:29;17.64;71.16
72288;SHT31;60221;45.696;16.076;2022-10-31T15:41:03;17.63;71.00
72288;SHT31;60221;45.696;16.076;2022-10-31T15:43:37;17.62;71.18
72288;SHT31;60221;45.696;16.076;2022-10-31T15:46:07;17.59;70.58
72288;SHT31;60221;45.696;16.076;2022-10-31T15:48:35;17.52;71.31
72288;SHT31;60221;45.696;16.076;2022-10-31T15:51:02;17.42;71.49
72288;SHT31;60221;45.696;16.076;2022-10-31T15:53:42;17.30;71.42
72288;SHT31;60221;45.696;16.076;2022-10-31T15:56:11;17.22;71.85
72288;SHT31;60221;45.696;16.076;2022-10-31T15:58:46;17.25;71.99
72288;SHT31;60221;45.696;16.076;2022-10-31T16:01:33;17.25;71.75
72288;SHT31;60221;45.696;16.076;2022-10-31T16:04:22;17.22;71.74
72288;SHT31;60221;45.696;16.076;2022-10-31T16:07:15;17.21;72.02
72288;SHT31;60221;45.696;16.076;2022-10-31T16:09:58;17.19;72.20
72288;SHT31;60221;45.696;16.076;2022-10-31T16:12:35;17.21;72.30
72288;SHT31;60221;45.696;16.076;2022-10-31T16:15:05;17.21;72.37
72288;SHT31;60221;45.696;16.076;2022-10-31T16:17:33;17.16;72.28
72288;SHT31;60221;45.696;16.076;2022-10-31T16:20:04;17.21;72.31
72288;SHT31;60221;45.696;16.076;2022-10-31T16:22:37;17.21;72.23
72288;SHT31;60221;45.696;16.076;2022-10-31T16:25:14;17.18;72.20
72288;SHT31;60221;45.696;16.076;2022-10-31T16:27:48;17.15;72.44
72288;SHT31;60221;45.696;16.076;2022-10-31T16:30:40;17.15;72.50
72288;SHT31;60221;45.696;16.076;2022-10-31T16:33:32;17.18;72.59
72288;SHT31;60221;45.696;16.076;2022-10-31T16:36:00;17.16;72.41
72288;SHT31;60221;45.696;16.076;2022-10-31T16:38:28;17.15;72.12
72288;SHT31;60221;45.696;16.076;2022-10-31T16:40:54;17.14;71.73
72288;SHT31;60221;45.696;16.076;2022-10-31T16:43:22;17.11;72.08
72288;SHT31;60221;45.696;16.076;2022-10-31T16:45:52;17.08;72.01
72288;SHT31;60221;45.696;16.076;2022-10-31T16:48:21;17.02;71.86
72288;SHT31;60221;45.696;16.076;2022-10-31T16:50:51;16.98;72.19
72288;SHT31;60221;45.696;16.076;2022-10-31T16:53:18;16.94;72.40
72288;SHT31;60221;45.696;16.076;2022-10-31T16:55:54;16.94;72.46
72288;SHT31;60221;45.696;16.076;2022-10-31T16:58:28;16.91;72.31
72288;SHT31;60221;45.696;16.076;2022-10-31T17:01:04;16.88;72.29
72288;SHT31;60221;45.696;16.076;2022-10-31T17:03:31;16.87;72.57
72288;SHT31;60221;45.696;16.076;2022-10-31T17:05:57;16.84;72.65
72288;SHT31;60221;45.696;16.076;2022-10-31T17:08:24;16.84;72.65
72288;SHT31;60221;45.696;16.076;2022-10-31T17:10:56;16.81;72.59
72288;SHT31;60221;45.696;16.076;2022-10-31T17:13:27;16.75;72.74
72288;SHT31;60221;45.696;16.076;2022-10-31T17:15:58;16.72;72.92
72288;SHT31;60221;45.696;16.076;2022-10-31T17:18:25;16.68;72.77
72288;SHT31;60221;45.696;16.076;2022-10-31T17:20:58;16.63;72.86
72288;SHT31;60221;45.696;16.076;2022-10-31T17:23:25;16.59;73.11
72288;SHT31;60221;45.696;16.076;2022-10-31T17:25:52;16.63;73.39
72288;SHT31;60221;45.696;16.076;2022-10-31T17:28:18;16.60;73.09
72288;SHT31;60221;45.696;16.076;2022-10-31T17:30:44;16.57;72.98
72288;SHT31;60221;45.696;16.076;2022-10-31T17:33:15;16.53;73.01
72288;SHT31;60221;45.696;16.076;2022-10-31T17:35:43;16.54;72.94
72288;SHT31;60221;45.696;16.076;2022-10-31T17:38:11;16.54;72.86
72288;SHT31;60221;45.696;16.076;2022-10-31T17:40:39;16.54;72.79
72288;SHT31;60221;45.696;16.076;2022-10-31T17:43:09;16.53;72.72
72288;SHT31;60221;45.696;16.076;2022-10-31T17:45:39;16.51;72.59
72288;SHT31;60221;45.696;16.076;2022-10-31T17:48:09;16.50;72.78